Terminal Aerodrome Forecast
Issued by NWS

Home | Current Version | Previous Version | Text Only | Print | Product List | Glossary On
Versions: 1 2 3 4 5 6 7 8 9 10 11 12
575
FTUS45 KRIW 081720
TAFCPR
TAF
KCPR 081720Z 0818/0918 24015G22KT P6SM SCT250
     FM090000 22012KT P6SM SCT250
     FM090600 23014G22KT P6SM SCT250=

USA.gov is the U.S. government's official web portal to all federal, state and local government web resources and services.